Time;durP1;ratioP1;P1;durP2;ratioP2;P2;SDS_P1;SDS_P2;PMS_P1;PMS_P2;Temp;Humidity;BMP_temperature;BMP_pressure;BME280_temperature;BME280_humidity;BME280_pressure;Samples;Min_cycle;Max_cycle;Signal;HPM_P1;HPM_P2
2024/03/01 00:01:46;;;;;;;31.73;14.20;;;14.30;98.40;;;;;;5014437;28;20030;-73
2024/03/01 00:04:12;;;;;;;24.20;13.82;;;14.20;98.20;;;;;;5014059;28;20029;-69
2024/03/01 00:06:39;;;;;;;22.90;13.60;;;14.20;98.20;;;;;;5013695;28;20608;-68
2024/03/01 00:09:04;;;;;;;24.23;14.57;;;14.20;98.50;;;;;;5014339;28;20458;-73
2024/03/01 00:11:31;;;;;;;26.48;14.52;;;14.20;98.50;;;;;;5013580;28;20037;-73
2024/03/01 00:13:57;;;;;;;25.70;14.55;;;14.20;98.50;;;;;;5013838;28;20022;-72
2024/03/01 00:16:23;;;;;;;22.05;13.93;;;14.20;98.60;;;;;;5013884;28;20100;-72
2024/03/01 00:18:49;;;;;;;26.42;15.02;;;14.20;98.70;;;;;;5013868;28;20050;-73
2024/03/01 00:21:18;;;;;;;27.65;16.75;;;14.20;98.60;;;;;;5013816;28;20026;-73
2024/03/01 00:23:44;;;;;;;28.77;15.00;;;14.20;98.70;;;;;;5013835;28;20105;-73
2024/03/01 00:26:10;;;;;;;26.42;15.27;;;14.20;98.70;;;;;;5013534;28;20490;-72
2024/03/01 00:28:36;;;;;;;25.67;15.60;;;14.20;98.90;;;;;;5013567;28;20111;-73
2024/03/01 00:31:03;;;;;;;31.92;16.83;;;14.20;98.80;;;;;;5013463;28;20057;-73
2024/03/01 00:33:29;;;;;;;24.67;15.77;;;14.20;99.00;;;;;;5013561;28;20117;-73
2024/03/01 00:35:55;;;;;;;33.30;17.98;;;14.20;98.90;;;;;;5013959;28;20042;-73
2024/03/01 00:38:21;;;;;;;31.38;17.38;;;14.20;98.90;;;;;;5013348;28;20030;-72
2024/03/01 00:40:47;;;;;;;32.38;16.83;;;14.20;99.10;;;;;;5013297;28;20034;-73
2024/03/01 00:43:13;;;;;;;36.00;18.15;;;14.20;99.30;;;;;;5013550;28;20032;-74
2024/03/01 00:45:39;;;;;;;23.13;15.48;;;14.20;99.10;;;;;;5013475;28;20112;-72
2024/03/01 00:48:12;;;;;;;26.10;16.55;;;14.20;99.40;;;;;;5012720;28;20050;-73
2024/03/01 00:50:39;;;;;;;25.80;16.50;;;14.10;99.60;;;;;;5013452;28;20057;-73
2024/03/01 00:53:06;;;;;;;29.70;16.85;;;14.20;99.70;;;;;;5013270;28;20030;-73
2024/03/01 00:55:32;;;;;;;27.75;15.93;;;14.10;99.70;;;;;;5013285;28;20105;-73
2024/03/01 00:57:59;;;;;;;29.75;16.65;;;14.10;99.50;;;;;;5013017;28;20032;-73
2024/03/01 01:00:26;;;;;;;29.55;16.48;;;14.10;99.70;;;;;;5013228;28;20037;-72
2024/03/01 01:02:52;;;;;;;25.20;16.25;;;14.10;99.70;;;;;;5013115;28;20504;-73
2024/03/01 01:05:18;;;;;;;30.92;16.58;;;14.10;99.60;;;;;;5013314;28;20053;-73
2024/03/01 01:07:44;;;;;;;30.60;16.25;;;14.10;99.70;;;;;;5013068;28;20034;-73
2024/03/01 01:10:10;;;;;;;30.33;16.98;;;14.10;99.60;;;;;;5013154;28;20029;-73
2024/03/01 01:12:36;;;;;;;23.55;16.30;;;14.10;99.30;;;;;;5013023;28;20429;-73
2024/03/01 01:15:02;;;;;;;26.40;16.63;;;14.10;99.40;;;;;;5013053;28;20497;-73
2024/03/01 01:17:28;;;;;;;32.78;16.20;;;14.10;99.60;;;;;;5012590;28;20022;-73
2024/03/01 01:19:57;;;;;;;27.95;16.00;;;14.10;99.70;;;;;;5013199;28;20029;-73
2024/03/01 01:22:24;;;;;;;30.33;17.65;;;14.10;99.60;;;;;;5013114;28;20021;-73
2024/03/01 01:24:50;;;;;;;29.70;16.73;;;14.10;99.70;;;;;;5012901;28;20474;-73
2024/03/01 01:27:16;;;;;;;26.38;16.77;;;14.10;99.60;;;;;;5013163;28;20038;-71
2024/03/01 01:29:42;;;;;;;35.33;17.73;;;14.00;99.60;;;;;;5012637;28;20058;-73
2024/03/01 01:32:07;;;;;;;28.92;16.23;;;14.10;99.80;;;;;;5012096;28;20030;-73
2024/03/01 01:34:34;;;;;;;28.48;17.05;;;14.00;99.90;;;;;;5012867;28;20050;-73
2024/03/01 01:36:59;;;;;;;29.98;16.85;;;14.00;99.90;;;;;;5012815;28;20034;-73
2024/03/01 01:39:25;;;;;;;29.15;18.30;;;14.00;99.90;;;;;;5012720;28;20049;-73
2024/03/01 01:41:51;;;;;;;25.42;17.23;;;14.00;99.90;;;;;;5013130;28;20048;-73
2024/03/01 01:44:17;;;;;;;30.25;17.73;;;14.00;99.90;;;;;;5013044;28;20037;-73
2024/03/01 01:46:47;;;;;;;29.42;17.90;;;14.00;99.90;;;;;;5012747;28;20057;-73
2024/03/01 01:49:13;;;;;;;30.27;18.67;;;14.00;99.90;;;;;;5012859;28;20072;-73
2024/03/01 01:51:40;;;;;;;32.45;19.30;;;14.00;99.90;;;;;;5012489;28;20057;-73
2024/03/01 01:54:07;;;;;;;33.88;17.73;;;14.00;99.90;;;;;;5012493;28;20117;-72
2024/03/01 01:56:33;;;;;;;29.88;18.52;;;14.00;99.90;;;;;;5012650;28;20541;-73
2024/03/01 01:58:59;;;;;;;32.17;18.17;;;14.00;99.90;;;;;;5010323;28;20033;-74
2024/03/01 02:01:25;;;;;;;28.27;17.90;;;14.00;99.90;;;;;;5010100;28;20076;-72
2024/03/01 02:03:52;;;;;;;29.95;17.83;;;14.00;99.90;;;;;;5010321;28;20445;-73
2024/03/01 02:06:20;;;;;;;33.80;18.17;;;14.00;99.90;;;;;;5012463;28;20452;-73
2024/03/01 02:08:46;;;;;;;27.80;17.92;;;13.90;99.90;;;;;;5012584;28;20030;-73
2024/03/01 02:11:12;;;;;;;27.92;18.52;;;14.00;99.90;;;;;;5012482;28;20026;-73
2024/03/01 02:13:38;;;;;;;27.67;18.25;;;14.00;99.90;;;;;;5012139;28;20032;-68
2024/03/01 02:16:04;;;;;;;29.30;18.33;;;14.00;99.90;;;;;;5012345;28;20029;-73
2024/03/01 02:18:33;;;;;;;28.05;17.38;;;13.90;99.90;;;;;;5012455;28;20022;-72
2024/03/01 02:21:14;;;;;;;28.08;17.42;;;14.00;99.90;;;;;;5012241;28;20437;-73
2024/03/01 02:23:39;;;;;;;26.27;16.73;;;13.90;99.90;;;;;;5012553;28;20022;-72
2024/03/01 02:26:06;;;;;;;28.85;17.38;;;14.00;99.90;;;;;;5012188;28;20030;-72
2024/03/01 02:28:32;;;;;;;27.10;17.63;;;13.90;99.90;;;;;;5013313;28;20026;-73
2024/03/01 02:30:58;;;;;;;25.25;16.92;;;13.90;99.90;;;;;;5016147;28;20030;-73
2024/03/01 02:33:24;;;;;;;28.63;16.20;;;13.90;99.90;;;;;;5016304;28;20118;-72
2024/03/01 02:35:50;;;;;;;25.73;17.20;;;13.90;99.90;;;;;;5015798;28;20066;-71
2024/03/01 02:38:16;;;;;;;25.23;17.15;;;13.90;99.90;;;;;;5016027;28;20030;-73
2024/03/01 02:40:43;;;;;;;31.85;17.80;;;13.90;99.90;;;;;;5015715;28;20083;-72
2024/03/01 02:43:09;;;;;;;28.02;17.52;;;13.90;99.90;;;;;;5015789;28;20029;-69
2024/03/01 02:45:35;;;;;;;26.23;17.10;;;13.90;99.90;;;;;;5014525;28;20022;-73
2024/03/01 02:48:02;;;;;;;27.92;17.67;;;13.90;99.90;;;;;;5015435;28;20485;-71
2024/03/01 02:50:27;;;;;;;27.63;17.23;;;13.80;99.90;;;;;;5015625;28;20033;-72
2024/03/01 02:52:53;;;;;;;34.00;18.33;;;13.80;99.90;;;;;;5015628;28;20030;-72
2024/03/01 02:55:22;;;;;;;30.75;19.05;;;13.80;99.90;;;;;;5015237;28;20026;-72
2024/03/01 02:57:51;;;;;;;26.70;17.70;;;13.80;99.90;;;;;;5015380;28;20048;-72
2024/03/01 03:00:18;;;;;;;30.98;17.65;;;13.80;99.90;;;;;;5015635;28;20026;-72
2024/03/01 03:02:44;;;;;;;32.03;18.70;;;13.80;99.90;;;;;;5015369;28;20054;-72
2024/03/01 03:05:10;;;;;;;28.90;18.52;;;13.80;99.90;;;;;;5015160;28;20022;-72
2024/03/01 03:07:37;;;;;;;30.20;18.95;;;13.70;99.90;;;;;;5014933;28;20045;-71
2024/03/01 03:10:04;;;;;;;33.80;18.73;;;13.70;99.90;;;;;;5015100;28;20463;-72
2024/03/01 03:12:29;;;;;;;32.15;18.88;;;13.70;99.90;;;;;;5014073;28;20030;-72
2024/03/01 03:14:55;;;;;;;34.20;20.10;;;13.70;99.90;;;;;;5015382;28;20037;-71
2024/03/01 03:17:22;;;;;;;27.27;18.73;;;13.70;99.90;;;;;;5015434;28;20034;-72
2024/03/01 03:19:51;;;;;;;28.80;18.75;;;13.60;99.90;;;;;;5015044;28;20022;-72
2024/03/01 03:22:17;;;;;;;27.13;18.05;;;13.60;99.90;;;;;;5014825;28;20109;-72
2024/03/01 03:24:43;;;;;;;26.13;18.10;;;13.60;99.90;;;;;;5014881;28;20429;-72
2024/03/01 03:27:09;;;;;;;30.27;19.27;;;13.60;99.90;;;;;;5014961;28;20084;-72
2024/03/01 03:29:35;;;;;;;31.88;18.90;;;13.60;99.90;;;;;;5015181;28;20094;-72
2024/03/01 03:32:03;;;;;;;32.75;18.67;;;13.50;99.90;;;;;;5014873;28;20033;-72
2024/03/01 03:34:29;;;;;;;31.45;19.27;;;13.60;99.90;;;;;;5014680;28;20042;-72
2024/03/01 03:36:55;;;;;;;32.63;20.45;;;13.60;99.90;;;;;;5014804;28;20504;-72
2024/03/01 03:39:21;;;;;;;30.85;18.55;;;13.50;99.90;;;;;;5014556;28;20053;-72
2024/03/01 03:41:47;;;;;;;29.92;19.30;;;13.50;99.90;;;;;;5014750;28;20029;-72
2024/03/01 03:44:13;;;;;;;29.83;18.83;;;13.50;99.90;;;;;;5014710;28;20025;-71
2024/03/01 03:46:38;;;;;;;31.10;18.65;;;13.50;99.90;;;;;;5014243;28;20050;-72
2024/03/01 03:49:07;;;;;;;29.30;17.92;;;13.50;99.90;;;;;;5014611;28;20030;-72
2024/03/01 03:51:33;;;;;;;28.50;18.30;;;13.50;99.90;;;;;;5014514;28;20371;-73
2024/03/01 03:53:59;;;;;;;28.58;18.52;;;13.50;99.90;;;;;;5014590;28;20029;-71
2024/03/01 03:56:25;;;;;;;32.03;17.63;;;13.40;99.90;;;;;;5013070;28;20377;-72
2024/03/01 03:58:51;;;;;;;25.45;18.20;;;13.50;99.90;;;;;;5014047;28;20026;-72
2024/03/01 04:01:17;;;;;;;27.15;17.50;;;13.40;99.90;;;;;;5014213;28;20053;-73
2024/03/01 04:03:43;;;;;;;27.20;17.48;;;13.40;99.90;;;;;;5013939;28;20104;-72
2024/03/01 04:06:09;;;;;;;26.73;18.55;;;13.40;99.90;;;;;;5014037;28;20097;-72
2024/03/01 04:08:38;;;;;;;49.22;32.63;;;13.40;99.90;;;;;;5014019;28;20026;-73
2024/03/01 04:11:07;;;;;;;64.82;51.63;;;13.40;99.90;;;;;;5014019;28;20096;-72
2024/03/01 04:13:37;;;;;;;45.42;29.83;;;13.40;99.90;;;;;;5013968;28;20363;-72
2024/03/01 04:16:06;;;;;;;36.70;24.80;;;13.40;99.90;;;;;;5014226;28;20533;-72
2024/03/01 04:18:32;;;;;;;30.95;22.33;;;13.40;99.90;;;;;;5014084;28;20508;-72
2024/03/01 04:20:59;;;;;;;31.90;19.58;;;13.40;99.90;;;;;;5013850;28;20022;-71
2024/03/01 04:23:25;;;;;;;30.88;19.38;;;13.40;99.90;;;;;;5013762;28;20494;-71
2024/03/01 04:25:52;;;;;;;25.02;17.88;;;13.40;99.90;;;;;;5013704;28;20028;-72
2024/03/01 04:28:18;;;;;;;26.33;17.58;;;13.40;99.90;;;;;;5013630;28;20040;-72
2024/03/01 04:30:45;;;;;;;27.45;17.45;;;13.40;99.90;;;;;;5014093;28;20025;-72
2024/03/01 04:33:11;;;;;;;30.83;19.50;;;13.40;99.90;;;;;;5013647;28;20037;-72
2024/03/01 04:35:37;;;;;;;31.85;21.85;;;13.40;99.90;;;;;;5013820;28;20470;-73
2024/03/01 04:38:04;;;;;;;29.10;22.40;;;13.30;99.90;;;;;;5013640;28;20033;-72
2024/03/01 04:40:29;;;;;;;28.67;18.60;;;13.30;99.90;;;;;;5013807;28;20435;-72
2024/03/01 04:42:55;;;;;;;23.30;17.67;;;13.30;99.90;;;;;;5013498;28;20057;-73
2024/03/01 04:45:21;;;;;;;27.92;20.52;;;13.30;99.90;;;;;;5013497;28;20026;-72
2024/03/01 04:47:49;;;;;;;31.75;19.77;;;13.30;99.90;;;;;;5013428;28;20402;-72
2024/03/01 04:50:16;;;;;;;24.92;19.08;;;13.30;99.90;;;;;;5013025;28;20021;-70
2024/03/01 04:52:41;;;;;;;26.00;20.40;;;13.30;99.90;;;;;;5012705;28;20141;-69
2024/03/01 04:55:09;;;;;;;37.90;20.27;;;13.20;99.90;;;;;;5013368;28;20053;-71
2024/03/01 04:57:35;;;;;;;28.67;20.20;;;13.20;99.90;;;;;;5013508;28;20460;-71
2024/03/01 05:00:02;;;;;;;25.77;18.63;;;13.20;99.90;;;;;;5013301;28;20486;-71
2024/03/01 05:02:28;;;;;;;28.38;18.85;;;13.20;99.90;;;;;;5013164;28;20109;-71
2024/03/01 05:04:56;;;;;;;30.67;17.67;;;13.20;99.90;;;;;;5013293;28;20022;-71
2024/03/01 05:07:22;;;;;;;26.88;18.85;;;13.20;99.90;;;;;;5013247;28;20371;-72
2024/03/01 05:09:48;;;;;;;25.27;17.40;;;13.20;99.90;;;;;;5013146;28;20034;-72
2024/03/01 05:12:14;;;;;;;28.48;18.60;;;13.10;99.90;;;;;;5012820;28;20148;-72
2024/03/01 05:14:40;;;;;;;29.88;16.98;;;13.10;99.90;;;;;;5012542;28;20022;-72
2024/03/01 05:17:08;;;;;;;29.70;17.98;;;13.20;99.90;;;;;;5012826;28;20026;-72
2024/03/01 05:19:38;;;;;;;28.70;18.05;;;13.10;99.90;;;;;;5013213;28;20113;-72
2024/03/01 05:22:07;;;;;;;29.13;17.40;;;13.10;99.90;;;;;;5013176;28;20030;-72
2024/03/01 05:24:32;;;;;;;30.52;18.17;;;13.10;99.90;;;;;;5013201;28;20026;-72
2024/03/01 05:26:59;;;;;;;30.27;17.98;;;13.10;99.90;;;;;;5012866;28;20052;-72
2024/03/01 05:29:26;;;;;;;32.20;17.83;;;13.10;99.90;;;;;;5012954;28;20080;-72
2024/03/01 05:31:52;;;;;;;28.00;19.25;;;13.10;99.90;;;;;;5011488;28;20030;-73
2024/03/01 05:34:17;;;;;;;26.05;18.08;;;13.10;99.90;;;;;;5013131;28;20024;-72
2024/03/01 05:36:43;;;;;;;26.50;17.48;;;13.10;99.90;;;;;;5012789;28;20030;-72
2024/03/01 05:39:18;;;;;;;34.88;17.63;;;13.10;99.90;;;;;;5012929;28;20036;-73
2024/03/01 05:41:45;;;;;;;29.13;17.50;;;13.10;99.90;;;;;;5012718;28;20084;-73
2024/03/01 05:44:15;;;;;;;30.10;18.23;;;13.10;99.90;;;;;;5013123;28;20109;-72
2024/03/01 05:46:41;;;;;;;23.73;17.00;;;13.00;99.90;;;;;;5012522;28;20049;-72
2024/03/01 05:49:09;;;;;;;24.52;17.45;;;13.00;99.90;;;;;;5012819;28;20030;-72
2024/03/01 05:51:35;;;;;;;26.17;17.90;;;13.10;99.90;;;;;;5012753;28;20034;-72
2024/03/01 05:54:03;;;;;;;28.17;17.40;;;13.00;99.90;;;;;;5012859;28;20497;-72
2024/03/01 05:56:29;;;;;;;28.00;16.88;;;13.10;99.90;;;;;;5012591;28;20488;-71
2024/03/01 05:58:55;;;;;;;25.48;17.80;;;13.00;99.90;;;;;;5012729;28;20030;-71
2024/03/01 06:01:22;;;;;;;29.67;18.15;;;13.00;99.90;;;;;;5012781;28;20423;-69
2024/03/01 06:03:48;;;;;;;25.80;17.23;;;13.00;99.90;;;;;;5015730;28;20022;-72
2024/03/01 06:06:15;;;;;;;28.48;17.60;;;13.00;99.90;;;;;;5016860;28;20032;-71
2024/03/01 06:08:41;;;;;;;28.33;17.08;;;13.10;99.90;;;;;;5016550;28;20521;-72
2024/03/01 06:11:10;;;;;;;23.88;17.05;;;13.10;99.90;;;;;;5016357;28;20018;-72
2024/03/01 06:13:38;;;;;;;28.40;17.23;;;13.10;99.90;;;;;;5015192;28;20032;-72
2024/03/01 06:16:04;;;;;;;28.40;18.55;;;13.10;99.90;;;;;;5016186;28;20072;-73
2024/03/01 06:18:30;;;;;;;22.52;17.13;;;13.10;99.90;;;;;;5016259;28;20029;-72
2024/03/01 06:20:56;;;;;;;28.42;16.60;;;13.10;99.90;;;;;;5015934;28;20018;-72
2024/03/01 06:23:22;;;;;;;27.20;18.13;;;13.10;99.90;;;;;;5015590;28;20520;-71
2024/03/01 06:25:48;;;;;;;27.20;17.25;;;13.10;99.90;;;;;;5015918;28;20053;-73
2024/03/01 06:28:14;;;;;;;28.17;18.02;;;13.10;99.90;;;;;;5015991;28;20033;-71
2024/03/01 06:30:40;;;;;;;23.60;16.23;;;13.10;99.90;;;;;;5016175;28;20037;-71
2024/03/01 06:33:06;;;;;;;24.30;16.98;;;13.10;99.90;;;;;;5016097;28;20105;-72
2024/03/01 06:35:32;;;;;;;25.73;18.10;;;13.10;99.90;;;;;;5016073;28;20118;-72
2024/03/01 06:37:57;;;;;;;27.08;17.23;;;13.10;99.90;;;;;;5015886;28;20069;-72
2024/03/01 06:40:24;;;;;;;25.42;16.98;;;13.10;99.90;;;;;;5016288;28;20061;-73
2024/03/01 06:42:49;;;;;;;24.55;17.17;;;13.10;99.90;;;;;;5016148;28;20363;-72
2024/03/01 06:45:15;;;;;;;24.30;16.95;;;13.10;99.90;;;;;;5015804;28;20025;-73
2024/03/01 06:47:41;;;;;;;25.05;16.88;;;13.10;99.90;;;;;;5014201;28;20046;-71
2024/03/01 06:50:10;;;;;;;22.77;15.63;;;13.10;99.90;;;;;;5015557;28;20029;-71
2024/03/01 06:52:36;;;;;;;26.65;16.73;;;13.10;99.90;;;;;;5015436;28;20022;-72
2024/03/01 06:55:03;;;;;;;27.38;16.30;;;13.10;99.90;;;;;;5015133;28;20018;-72
2024/03/01 06:57:29;;;;;;;30.25;17.52;;;13.10;99.90;;;;;;5015224;28;20022;-72
2024/03/01 06:59:56;;;;;;;29.80;17.27;;;13.10;99.90;;;;;;5015490;28;20088;-70
2024/03/01 07:02:22;;;;;;;23.38;16.70;;;13.10;99.90;;;;;;5015568;28;20052;-72
2024/03/01 07:04:48;;;;;;;23.88;16.17;;;13.10;99.90;;;;;;5015232;28;20018;-72
2024/03/01 07:07:16;;;;;;;24.38;16.63;;;13.10;99.90;;;;;;5015212;28;20034;-72
2024/03/01 07:09:42;;;;;;;20.35;15.85;;;13.10;99.90;;;;;;5015046;28;20525;-72
2024/03/01 07:12:08;;;;;;;25.38;16.80;;;13.10;99.90;;;;;;5015055;28;20544;-72
2024/03/01 07:14:35;;;;;;;28.98;17.17;;;13.10;99.90;;;;;;5014224;28;20030;-72
2024/03/01 07:17:01;;;;;;;23.33;16.63;;;13.10;99.90;;;;;;5015093;28;20026;-71
2024/03/01 07:19:26;;;;;;;27.08;17.25;;;13.10;99.90;;;;;;5015071;28;20033;-72
2024/03/01 07:21:53;;;;;;;21.05;16.55;;;13.10;99.90;;;;;;5015089;28;20030;-72
2024/03/01 07:24:19;;;;;;;26.45;17.48;;;13.10;99.90;;;;;;5015003;28;20029;-72
2024/03/01 07:26:45;;;;;;;24.95;16.38;;;13.10;99.90;;;;;;5015014;28;20057;-72
2024/03/01 07:29:11;;;;;;;26.48;16.95;;;13.20;99.90;;;;;;5014941;28;20057;-72
2024/03/01 07:31:36;;;;;;;24.02;17.35;;;13.20;99.90;;;;;;5015136;28;20558;-72
2024/03/01 07:34:02;;;;;;;29.02;17.65;;;13.20;99.90;;;;;;5014806;28;20026;-71
2024/03/01 07:36:28;;;;;;;27.40;17.45;;;13.20;99.90;;;;;;5014261;28;20057;-71
2024/03/01 07:38:54;;;;;;;24.48;17.77;;;13.20;99.90;;;;;;5014001;28;20022;-73
2024/03/01 07:41:21;;;;;;;25.38;18.58;;;13.20;99.90;;;;;;5014608;28;20041;-72
2024/03/01 07:43:49;;;;;;;23.70;17.35;;;13.10;99.90;;;;;;5014524;28;20026;-70
2024/03/01 07:46:16;;;;;;;27.88;19.70;;;13.10;99.90;;;;;;5014152;28;20026;-65
2024/03/01 07:48:45;;;;;;;27.55;18.80;;;13.00;99.90;;;;;;5014075;28;20038;-68
2024/03/01 07:51:12;;;;;;;32.50;20.50;;;13.00;99.90;;;;;;5014096;28;20033;-67
2024/03/01 07:53:39;;;;;;;28.35;20.20;;;13.00;99.90;;;;;;5012824;28;20030;-73
2024/03/01 07:56:06;;;;;;;27.90;19.83;;;13.00;99.90;;;;;;5011719;28;20022;-74
2024/03/01 07:58:33;;;;;;;30.33;19.45;;;13.00;99.90;;;;;;5011700;28;20486;-77
2024/03/01 08:00:59;;;;;;;26.42;20.65;;;13.00;99.90;;;;;;5013544;28;20053;-74
2024/03/01 08:03:25;;;;;;;29.25;20.55;;;13.00;99.90;;;;;;5013850;28;20557;-76
2024/03/01 08:05:51;;;;;;;29.13;20.92;;;12.90;99.90;;;;;;5013906;28;20101;-76
2024/03/01 08:08:36;;;;;;;28.58;20.08;;;13.00;99.90;;;;;;5013506;28;20084;-73
2024/03/01 08:11:07;;;;;;;36.33;22.05;;;12.90;99.90;;;;;;5014124;28;20021;-74
2024/03/01 08:13:34;;;;;;;29.50;20.98;;;12.90;99.90;;;;;;5013153;28;20486;-75
2024/03/01 08:16:00;;;;;;;27.75;21.50;;;12.90;99.90;;;;;;5010983;28;20549;-74
2024/03/01 08:18:26;;;;;;;30.17;21.20;;;12.90;99.90;;;;;;5011049;28;20121;-73
2024/03/01 08:20:58;;;;;;;32.13;21.95;;;12.90;99.90;;;;;;5013691;28;20065;-74
2024/03/01 08:23:26;;;;;;;28.83;20.60;;;12.90;99.90;;;;;;5013841;28;20022;-69
2024/03/01 08:25:53;;;;;;;27.83;20.35;;;12.90;99.90;;;;;;5011396;28;20033;-75
2024/03/01 08:28:26;;;;;;;30.17;22.48;;;12.90;99.90;;;;;;5011641;28;20064;-74
2024/03/01 08:30:52;;;;;;;27.92;20.05;;;12.90;99.90;;;;;;5011726;28;20030;-75
2024/03/01 08:33:19;;;;;;;25.48;20.52;;;12.90;99.90;;;;;;5012408;28;20080;-75
2024/03/01 08:35:49;;;;;;;27.35;20.65;;;12.90;99.90;;;;;;5013337;28;20023;-73
2024/03/01 08:38:49;;;;;;;27.83;19.08;;;12.90;99.90;;;;;;5013401;28;20026;-75
2024/03/01 08:41:15;;;;;;;28.27;19.95;;;12.90;99.90;;;;;;5013106;28;20030;-75
2024/03/01 08:43:42;;;;;;;25.25;19.55;;;12.90;99.90;;;;;;5013126;28;20076;-75
2024/03/01 08:46:31;;;;;;;25.20;17.42;;;12.90;99.90;;;;;;5012772;28;20064;-74
2024/03/01 08:49:00;;;;;;;24.20;17.83;;;12.90;99.90;;;;;;5012879;28;20038;-76
2024/03/01 08:51:26;;;;;;;24.48;18.50;;;12.90;99.90;;;;;;5012778;28;20033;-75
2024/03/01 08:54:00;;;;;;;28.55;21.75;;;12.90;99.90;;;;;;5013163;28;20018;-75
2024/03/01 08:56:35;;;;;;;29.00;21.40;;;12.90;99.90;;;;;;5012781;28;20033;-76
2024/03/01 08:59:06;;;;;;;32.47;21.48;;;12.90;99.90;;;;;;5013209;28;20088;-74
2024/03/01 09:01:44;;;;;;;32.40;21.80;;;12.90;99.90;;;;;;5013507;28;20026;-74
2024/03/01 09:04:25;;;;;;;30.13;21.23;;;12.90;99.90;;;;;;5013408;28;20049;-76
2024/03/01 09:07:13;;;;;;;30.35;21.90;;;12.90;99.90;;;;;;5013157;28;20033;-75
2024/03/01 09:09:39;;;;;;;28.85;21.38;;;12.90;99.90;;;;;;5013149;28;20034;-76
2024/03/01 09:12:09;;;;;;;31.15;21.80;;;12.90;99.90;;;;;;5011962;28;20101;-76
2024/03/01 09:14:34;;;;;;;29.88;21.75;;;13.00;99.90;;;;;;5012126;28;20028;-75
2024/03/01 09:17:01;;;;;;;29.90;23.02;;;12.90;99.90;;;;;;5012398;28;20030;-77
2024/03/01 09:19:32;;;;;;;30.25;21.80;;;12.90;99.90;;;;;;5011938;28;20056;-76
2024/03/01 09:22:00;;;;;;;31.13;22.93;;;13.00;99.90;;;;;;5011353;28;20026;-77
2024/03/01 09:24:26;;;;;;;34.13;23.30;;;13.00;99.90;;;;;;5011256;28;20037;-75
2024/03/01 09:26:55;;;;;;;34.00;22.10;;;13.00;99.90;;;;;;5009794;28;20029;-77
2024/03/01 09:29:35;;;;;;;31.58;22.70;;;13.00;99.90;;;;;;5009395;28;20015;-77
2024/03/01 09:32:02;;;;;;;35.88;23.73;;;13.00;99.90;;;;;;5009421;28;20079;-77
2024/03/01 09:34:36;;;;;;;31.15;22.98;;;12.90;99.90;;;;;;5009996;28;20029;-76
2024/03/01 09:37:07;;;;;;;32.25;22.85;;;13.00;99.90;;;;;;5011295;28;20022;-75
2024/03/01 09:39:34;;;;;;;35.20;23.98;;;13.00;99.90;;;;;;5015135;28;20067;-77
2024/03/01 09:42:28;;;;;;;33.53;23.90;;;13.00;99.90;;;;;;5015860;28;20079;-77
2024/03/01 09:45:13;;;;;;;38.15;23.58;;;13.00;99.90;;;;;;5009685;28;20467;-76
2024/03/01 09:48:18;;;;;;;31.25;23.17;;;13.00;99.90;;;;;;5016755;28;20517;-76
2024/03/01 09:51:05;;;;;;;34.67;22.33;;;13.00;99.90;;;;;;4986893;28;20425;-76
2024/03/01 09:53:52;;;;;;;33.72;22.33;;;13.10;99.90;;;;;;5017085;28;20072;-76
2024/03/01 09:56:32;;;;;;;30.17;21.65;;;13.00;99.90;;;;;;5016681;28;20053;-76
2024/03/01 09:59:15;;;;;;;35.53;21.73;;;13.00;99.90;;;;;;5016614;28;20029;-76
2024/03/01 10:01:46;;;;;;;28.85;21.33;;;13.10;99.90;;;;;;5016765;28;20553;-77
2024/03/01 10:04:42;;;;;;;30.30;20.27;;;13.10;99.90;;;;;;5016391;28;20137;-76
2024/03/01 10:07:26;;;;;;;30.23;19.63;;;13.10;99.90;;;;;;5016680;28;20049;-77
2024/03/01 10:10:13;;;;;;;31.38;19.58;;;13.00;99.90;;;;;;5016698;28;20021;-76
2024/03/01 10:12:41;;;;;;;28.88;19.33;;;13.00;99.90;;;;;;5016470;28;20482;-77
2024/03/01 10:15:17;;;;;;;25.98;18.27;;;13.10;99.90;;;;;;5016473;28;20085;-76
2024/03/01 10:18:11;;;;;;;29.77;20.27;;;13.00;99.90;;;;;;5016485;28;20046;-77
2024/03/01 10:21:06;;;;;;;32.08;21.95;;;13.10;99.90;;;;;;5016409;28;20101;-77
2024/03/01 10:23:53;;;;;;;28.63;18.60;;;13.10;99.90;;;;;;5016290;28;20113;-76
2024/03/01 10:26:28;;;;;;;30.23;19.83;;;13.10;99.90;;;;;;5016176;28;20014;-77
2024/03/01 10:29:09;;;;;;;26.25;17.92;;;13.10;99.90;;;;;;5015145;28;20060;-76
2024/03/01 10:31:44;;;;;;;22.52;17.77;;;13.10;99.90;;;;;;5016416;28;20064;-76
2024/03/01 10:34:36;;;;;;;31.30;18.10;;;13.10;99.90;;;;;;5016258;28;20517;-77
2024/03/01 10:37:46;;;;;;;26.83;17.83;;;13.20;99.90;;;;;;5016434;28;20026;-77
2024/03/01 10:40:17;;;;;;;28.35;18.15;;;13.20;99.90;;;;;;5016466;28;20441;-77
2024/03/01 10:43:26;;;;;;;26.80;18.25;;;13.20;99.90;;;;;;5016369;28;20092;-77
2024/03/01 10:46:07;;;;;;;27.48;17.80;;;13.20;99.90;;;;;;5000188;28;20122;-77
2024/03/01 10:48:43;;;;;;;36.67;20.23;;;13.20;99.90;;;;;;5015364;28;20081;-74
2024/03/01 10:51:15;;;;;;;29.90;20.20;;;13.20;99.90;;;;;;5015814;28;20019;-76
2024/03/01 10:53:49;;;;;;;32.13;21.38;;;13.20;99.90;;;;;;5016382;28;20482;-73
2024/03/01 10:56:15;;;;;;;28.33;19.58;;;13.20;99.90;;;;;;5015996;28;20057;-76
2024/03/01 10:58:56;;;;;;;27.17;19.77;;;13.20;99.90;;;;;;5015638;28;20033;-77
2024/03/01 11:01:33;;;;;;;29.55;18.67;;;13.20;99.90;;;;;;5015747;28;20489;-76
2024/03/01 11:04:20;;;;;;;28.63;19.42;;;13.20;99.90;;;;;;5015669;28;20026;-74
2024/03/01 11:07:05;;;;;;;21.80;14.63;;;13.30;99.90;;;;;;4998032;28;20037;-77
2024/03/01 11:09:59;;;;;;;23.42;15.70;;;13.30;99.90;;;;;;5015798;28;20037;-76
2024/03/01 11:12:30;;;;;;;20.85;15.07;;;13.30;99.90;;;;;;5015560;28;20030;-76
2024/03/01 11:15:03;;;;;;;26.95;16.08;;;13.30;99.90;;;;;;5015600;28;20041;-77
2024/03/01 11:17:29;;;;;;;19.70;12.60;;;13.30;99.90;;;;;;5015324;28;20030;-77
2024/03/01 11:20:03;;;;;;;17.08;12.98;;;13.30;99.90;;;;;;5015568;28;20124;-76
2024/03/01 11:22:30;;;;;;;18.40;13.38;;;13.30;99.90;;;;;;5015221;28;20470;-76
2024/03/01 11:25:11;;;;;;;18.73;12.77;;;13.30;99.90;;;;;;5015521;28;20120;-77
2024/03/01 11:27:47;;;;;;;17.45;12.40;;;13.30;99.90;;;;;;5014946;28;20482;-76
2024/03/01 11:30:19;;;;;;;19.65;13.55;;;13.30;99.90;;;;;;5014894;28;20739;-68
2024/03/01 11:32:49;;;;;;;22.77;14.53;;;13.30;99.90;;;;;;5014964;28;20021;-76
2024/03/01 11:35:45;;;;;;;17.38;12.68;;;13.30;99.90;;;;;;5013531;28;20280;-77
2024/03/01 11:38:34;;;;;;;18.55;12.90;;;13.40;99.90;;;;;;5014534;28;20025;-75
2024/03/01 11:41:28;;;;;;;16.08;12.63;;;13.40;99.90;;;;;;5014808;28;20091;-76
2024/03/01 11:44:29;;;;;;;15.73;12.63;;;13.40;99.90;;;;;;5014703;28;20032;-76
2024/03/01 11:46:55;;;;;;;21.95;15.10;;;13.40;99.90;;;;;;5014731;28;20498;-75
2024/03/01 11:49:51;;;;;;;23.45;15.23;;;13.40;99.90;;;;;;5014460;28;20088;-77
2024/03/01 11:52:38;;;;;;;20.80;15.93;;;13.40;99.90;;;;;;5013783;28;20026;-76
2024/03/01 11:55:34;;;;;;;22.92;15.38;;;13.40;99.90;;;;;;5012967;28;20029;-74
2024/03/01 11:58:00;;;;;;;23.60;15.23;;;13.40;99.90;;;;;;5012950;28;20033;-76
2024/03/01 12:00:36;;;;;;;18.23;14.38;;;13.40;99.90;;;;;;5012807;28;20030;-74
2024/03/01 12:03:40;;;;;;;20.00;14.50;;;13.40;99.90;;;;;;5015623;28;20063;-76
2024/03/01 12:06:22;;;;;;;25.27;13.85;;;13.40;99.90;;;;;;5015261;28;20061;-76
2024/03/01 12:09:08;;;;;;;24.02;18.05;;;13.40;99.90;;;;;;5014346;28;20113;-75
2024/03/01 12:12:11;;;;;;;44.53;16.85;;;13.40;99.90;;;;;;5013867;28;20049;-73
2024/03/01 12:14:47;;;;;;;23.75;16.67;;;13.40;99.90;;;;;;5010943;28;20188;-75
2024/03/01 12:17:16;;;;;;;24.45;16.55;;;13.40;99.90;;;;;;5010047;28;20029;-74
2024/03/01 12:19:56;;;;;;;24.02;16.90;;;13.40;99.90;;;;;;5013587;28;20474;-76
2024/03/01 12:22:34;;;;;;;22.75;16.58;;;13.40;99.90;;;;;;5013943;28;20018;-74
2024/03/01 12:25:01;;;;;;;23.05;16.55;;;13.40;99.90;;;;;;5014900;28;20036;-75
2024/03/01 12:28:08;;;;;;;25.85;18.20;;;13.40;99.90;;;;;;5013357;28;20113;-75
2024/03/01 12:30:37;;;;;;;27.30;17.55;;;13.30;99.90;;;;;;5012870;28;20026;-76
2024/03/01 12:33:38;;;;;;;28.48;19.75;;;13.30;99.90;;;;;;5013020;28;20018;-76
2024/03/01 12:36:39;;;;;;;25.15;17.70;;;13.30;99.90;;;;;;5013553;28;20032;-76
2024/03/01 12:39:12;;;;;;;24.73;17.73;;;13.30;99.90;;;;;;5010722;28;20072;-73
2024/03/01 12:41:57;;;;;;;25.13;17.58;;;13.30;99.90;;;;;;5011056;28;20385;-75
2024/03/01 12:44:35;;;;;;;24.55;16.65;;;13.30;99.90;;;;;;5011279;28;20022;-74
2024/03/01 12:47:08;;;;;;;21.88;16.00;;;13.30;99.90;;;;;;5012945;28;20056;-75